Airport View

Enter AWOS ICAO identifier for current METAR.

ex. KFNL

KEKS 261815Z AUTO 16017KT 10SM OVC047 M03/M09 A3034 RMK AO2

26 Feb 2020 18:34

Frequency: 119.85

Phone: 406-682-3835

Other Area AWOS: KBZN - KDLN - KWYS - KLVM

TAF KEKS 261720Z 2618/2718 17013KT P6SM BKN050 FM262200 18012KT P6SM VCSH SCT030 OVC045 FM270000 17012KT P6SM VCSH OVC040 TEMPO 2701/2705 4SM -SHRASN OVC025 FM271100 16009KT P6SM FEW060 FEW150